Armourdale, North Dakota
Current Conditions -  °F | °C
As of 8:15 PM on Saturday 22 Nov 2014 (Local Time) from K06D Reporting Station
Overcast Overcast  
Wind Chill: 25°   Ceiling: 10000
Heat Index: 34°   Visibility: 10mi
Dew Point: 30°   Wind: 12mph
Humidity: 87%   Direction: 220°SW
Pressure: 29.29"   Gusts: NA
Location:  48.8584°N, 99.1311°W
Report Text: K06D 230215Z AUTO 22010KT 10SM OVC100 01/M01 A2929 RMK AO2
Loading
Personal Weather Stations






























Interactive Weather Map New forecast layout! Learn more

10-Day Weather Forecast

Advertisements
Track Severe Weather on mobile